createdAt,value
2017-09-21T00:02:10.693Z,101647.56
2017-09-21T00:04:38.478Z,101642.19
2017-09-21T00:07:06.072Z,101637.28
2017-09-21T00:09:33.714Z,101648.42
2017-09-21T00:12:01.323Z,101643.17
2017-09-21T00:14:28.959Z,101641.51
2017-09-21T00:16:56.537Z,101643.48
2017-09-21T00:19:24.143Z,101640.48
2017-09-21T00:21:51.766Z,101643.04
2017-09-21T00:24:19.386Z,101640.88
2017-09-21T00:26:47.011Z,101634.94
2017-09-21T00:29:14.639Z,101638.65
2017-09-21T00:31:42.282Z,101639.64
2017-09-21T00:34:09.869Z,101639.45
2017-09-21T00:36:37.531Z,101641.22
2017-09-21T00:39:05.251Z,101638.27
2017-09-21T00:41:32.826Z,101641.79
2017-09-21T00:44:00.458Z,101643.23
2017-09-21T00:46:28.085Z,101644.05
2017-09-21T00:48:55.741Z,101637.84
2017-09-21T00:51:23.373Z,101635.92
2017-09-21T00:53:51.015Z,101633.86
2017-09-21T00:56:18.598Z,101637.84
2017-09-21T00:58:46.237Z,101629.50
2017-09-21T01:01:13.849Z,101635.30
2017-09-21T01:03:41.520Z,101635.17
2017-09-21T01:06:09.140Z,101632.88
2017-09-21T01:08:36.791Z,101636.83
2017-09-21T01:11:04.383Z,101632.60
2017-09-21T01:13:32.021Z,101629.88
2017-09-21T01:15:59.800Z,101624.89
2017-09-21T01:18:27.456Z,101630.69
2017-09-21T01:20:55.135Z,101629.63
2017-09-21T01:23:22.846Z,101624.13
2017-09-21T01:25:50.485Z,101621.72
2017-09-21T01:28:18.110Z,101619.47
2017-09-21T01:30:45.719Z,101621.73
2017-09-21T01:33:13.346Z,101625.77
2017-09-21T01:35:40.939Z,101630.59
2017-09-21T01:38:08.554Z,101628.53
2017-09-21T01:40:36.147Z,101627.88
2017-09-21T01:43:03.740Z,101626.92
2017-09-21T01:45:31.388Z,101624.66
2017-09-21T01:47:58.982Z,101627.23
2017-09-21T01:50:26.611Z,101626.69
2017-09-21T01:52:54.199Z,101625.22
2017-09-21T01:55:21.819Z,101629.96
2017-09-21T01:57:49.416Z,101623.08
2017-09-21T02:00:17.046Z,101625.22
2017-09-21T02:02:44.642Z,101625.13
2017-09-21T02:05:12.267Z,101624.38
2017-09-21T02:07:39.934Z,101630.42
2017-09-21T02:10:07.711Z,101628.73
2017-09-21T02:12:35.670Z,101635.23
2017-09-21T02:15:03.276Z,101638.89
2017-09-21T02:17:30.914Z,101634.20
2017-09-21T02:19:58.529Z,101637.88
2017-09-21T02:22:26.198Z,101639.56
2017-09-21T02:24:53.786Z,101642.83
2017-09-21T02:27:21.460Z,101638.56
2017-09-21T02:29:49.040Z,101641.95
2017-09-21T02:32:16.670Z,101637.50
2017-09-21T02:34:44.279Z,101632.17
2017-09-21T02:37:11.910Z,101634.28
2017-09-21T02:39:39.738Z,101627.14
2017-09-21T02:42:07.420Z,101628.73
2017-09-21T02:44:35.030Z,101626.98
2017-09-21T02:47:02.757Z,101622.45
2017-09-21T02:49:30.358Z,101623.58
2017-09-21T02:51:57.947Z,101633.60
2017-09-21T02:54:25.683Z,101631.14
2017-09-21T02:56:53.281Z,101631.26
2017-09-21T02:59:20.928Z,101630.92
2017-09-21T03:01:48.524Z,101631.22
2017-09-21T03:04:16.250Z,101627.06
2017-09-21T03:06:43.848Z,101630.80
2017-09-21T03:09:11.475Z,101634.70
2017-09-21T03:11:39.079Z,101647.11
2017-09-21T03:14:06.711Z,101640.84
2017-09-21T03:16:34.327Z,101643.97
2017-09-21T03:19:01.980Z,101644.47
2017-09-21T03:21:29.567Z,101638.73
2017-09-21T03:23:57.190Z,101643.92
2017-09-21T03:26:24.815Z,101639.98
2017-09-21T03:28:52.399Z,101644.09
2017-09-21T03:31:20.233Z,101640.45
2017-09-21T03:33:47.819Z,101634.88
2017-09-21T03:36:15.430Z,101629.30
2017-09-21T03:38:43.069Z,101629.30
2017-09-21T03:41:11.391Z,101622.51
2017-09-21T03:43:39.602Z,101624.30
2017-09-21T03:46:07.437Z,101624.73
2017-09-21T03:48:35.656Z,101625.30
2017-09-21T03:51:03.682Z,101625.63
2017-09-21T03:53:31.362Z,101616.61
2017-09-21T03:55:59.411Z,101623.91
2017-09-21T03:58:27.052Z,101622.69
2017-09-21T04:00:55.526Z,101626.20
2017-09-21T04:03:23.288Z,101625.66
2017-09-21T04:05:51.435Z,101618.71
2017-09-21T04:08:19.072Z,101616.73
2017-09-21T04:10:47.011Z,101618.95
2017-09-21T04:13:15.495Z,101623.98
2017-09-21T04:15:43.135Z,101620.28
2017-09-21T04:18:11.360Z,101626.78
2017-09-21T04:20:39.543Z,101639.27
2017-09-21T04:23:07.906Z,101637.50
2017-09-21T04:25:35.532Z,101634.45
2017-09-21T04:28:03.256Z,101629.14
2017-09-21T04:30:30.864Z,101630.33
2017-09-21T04:32:59.367Z,101638.08
2017-09-21T04:35:27.440Z,101642.69
2017-09-21T04:37:55.119Z,101641.13
2017-09-21T04:40:22.725Z,101645.03
2017-09-21T04:42:50.518Z,101638.23
2017-09-21T04:45:18.211Z,101643.59
2017-09-21T04:47:45.841Z,101641.08
2017-09-21T04:50:13.498Z,101642.88
2017-09-21T04:52:41.183Z,101640.23
2017-09-21T04:55:08.824Z,101640.81
2017-09-21T04:57:36.771Z,101642.62
2017-09-21T05:00:04.898Z,101641.34
2017-09-21T05:02:32.631Z,101640.05
2017-09-21T05:05:01.281Z,101639.05
2017-09-21T05:07:29.079Z,101637.66
2017-09-21T05:09:57.648Z,101641.94
2017-09-21T05:12:25.258Z,101641.23
2017-09-21T05:14:52.896Z,101644.28
2017-09-21T05:17:20.520Z,101642.12
2017-09-21T05:19:48.241Z,101643.85
2017-09-21T05:22:17.034Z,101639.90
2017-09-21T05:24:45.957Z,101635.78
2017-09-21T05:27:13.580Z,101635.06
2017-09-21T05:29:41.815Z,101631.60
2017-09-21T05:32:09.467Z,101632.24
2017-09-21T05:34:37.070Z,101639.78
2017-09-21T05:37:04.689Z,101641.17
2017-09-21T05:39:32.343Z,101639.59
2017-09-21T05:41:59.966Z,101640.95
2017-09-21T05:44:27.678Z,101647.54
2017-09-21T05:46:55.303Z,101647.56
2017-09-21T05:49:22.922Z,101648.97
2017-09-21T05:51:50.539Z,101652.36
2017-09-21T05:54:18.155Z,101659.59
2017-09-21T05:56:45.811Z,101652.53
2017-09-21T05:59:13.406Z,101650.55
2017-09-21T06:01:41.027Z,101642.89
2017-09-21T06:04:08.618Z,101645.70
2017-09-21T06:06:36.300Z,101640.14
2017-09-21T06:09:03.926Z,101645.52
2017-09-21T06:11:31.519Z,101645.50
2017-09-21T06:13:59.153Z,101651.09
2017-09-21T06:16:26.755Z,101648.62
2017-09-21T06:18:54.556Z,101650.48
2017-09-21T06:21:22.218Z,101659.36
2017-09-21T06:23:49.828Z,101655.41
2017-09-21T06:26:17.446Z,101653.34
2017-09-21T06:28:45.059Z,101647.03
2017-09-21T06:31:12.650Z,101653.12
2017-09-21T06:33:40.302Z,101649.89
2017-09-21T06:36:07.904Z,101650.70
2017-09-21T06:38:35.534Z,101652.02
2017-09-21T06:41:03.110Z,101652.92
2017-09-21T06:43:30.735Z,101645.62
2017-09-21T06:45:58.344Z,101651.16
2017-09-21T06:48:26.001Z,101648.77
2017-09-21T06:50:53.638Z,101642.63
2017-09-21T06:53:21.246Z,101650.48
2017-09-21T06:55:48.874Z,101648.70
2017-09-21T06:58:16.463Z,101648.62
2017-09-21T07:00:44.084Z,101647.09
2017-09-21T07:03:11.675Z,101648.80
2017-09-21T07:05:39.290Z,101650.97
2017-09-21T07:08:06.883Z,101649.22
2017-09-21T07:10:34.494Z,101645.25
2017-09-21T07:13:02.078Z,101650.70
2017-09-21T07:15:29.715Z,101655.26
2017-09-21T07:17:57.316Z,101651.67
2017-09-21T07:20:24.929Z,101660.25
2017-09-21T07:22:52.539Z,101646.31
2017-09-21T07:25:20.165Z,101644.56
2017-09-21T07:27:47.758Z,101651.45
2017-09-21T07:30:15.386Z,101650.09
2017-09-21T07:32:42.978Z,101654.61
2017-09-21T07:35:10.644Z,101656.42
2017-09-21T07:37:38.258Z,101658.70
2017-09-21T07:40:05.880Z,101660.58
2017-09-21T07:42:33.475Z,101667.96
2017-09-21T07:45:01.120Z,101669.77
2017-09-21T07:47:28.757Z,101660.86
2017-09-21T07:49:56.343Z,101662.33
2017-09-21T07:52:23.966Z,101661.64
2017-09-21T07:54:51.564Z,101664.58
2017-09-21T07:57:19.300Z,101664.98
2017-09-21T07:59:46.897Z,101667.78
2017-09-21T08:02:14.531Z,101663.98
2017-09-21T08:04:42.138Z,101665.02
2017-09-21T08:07:09.767Z,101665.66
2017-09-21T08:09:37.358Z,101666.56
2017-09-21T08:12:04.984Z,101672.73
2017-09-21T08:14:32.621Z,101666.66
2017-09-21T08:17:00.258Z,101666.20
2017-09-21T08:19:29.553Z,101660.88
2017-09-21T08:21:57.316Z,101669.45
2017-09-21T08:24:24.904Z,101667.23
2017-09-21T08:26:52.526Z,101666.66
2017-09-21T08:29:20.132Z,101673.08
2017-09-21T08:31:47.758Z,101667.48
2017-09-21T08:34:15.354Z,101661.53
2017-09-21T08:36:43.122Z,101664.97
2017-09-21T08:39:10.706Z,101663.69
2017-09-21T08:41:38.294Z,101657.40
2017-09-21T08:44:05.950Z,101655.70
2017-09-21T08:46:33.550Z,101651.28
2017-09-21T08:49:01.174Z,101654.02
2017-09-21T08:51:28.767Z,101654.09
2017-09-21T08:53:56.383Z,101654.00
2017-09-21T08:56:24.050Z,101653.94
2017-09-21T08:58:51.717Z,101656.09
2017-09-21T09:01:19.386Z,101657.31
2017-09-21T09:03:46.974Z,101652.52
2017-09-21T09:06:14.610Z,101653.78
2017-09-21T09:08:42.200Z,101658.92
2017-09-21T09:11:09.814Z,101654.11
2017-09-21T09:13:37.426Z,101650.92
2017-09-21T09:16:05.054Z,101646.11
2017-09-21T09:18:32.658Z,101649.37
2017-09-21T09:21:00.288Z,101645.19
2017-09-21T09:23:27.918Z,101643.44
2017-09-21T09:25:55.566Z,101635.74
2017-09-21T09:28:23.163Z,101637.52
2017-09-21T09:30:50.797Z,101635.22
2017-09-21T09:33:18.440Z,101637.00
2017-09-21T09:35:46.087Z,101633.20
2017-09-21T09:38:13.739Z,101635.50
2017-09-21T09:40:41.400Z,101628.61
2017-09-21T09:43:09.011Z,101626.56
2017-09-21T09:45:36.664Z,101628.56
2017-09-21T09:48:04.294Z,101629.91
2017-09-21T09:50:31.883Z,101622.16
2017-09-21T09:52:59.511Z,101625.07
2017-09-21T09:55:27.118Z,101621.50
2017-09-21T09:57:54.767Z,101614.87
2017-09-21T10:00:22.350Z,101618.71
2017-09-21T10:02:49.995Z,101616.28
2017-09-21T10:05:17.613Z,101609.48
2017-09-21T10:07:45.248Z,101606.53
2017-09-21T10:10:12.847Z,101601.58
2017-09-21T10:12:40.498Z,101601.28
2017-09-21T10:15:08.082Z,101605.13
2017-09-21T10:17:35.702Z,101596.11
2017-09-21T10:20:03.332Z,101595.72
2017-09-21T10:22:30.959Z,101596.75
2017-09-21T10:24:58.536Z,101589.78
2017-09-21T10:27:26.162Z,101595.61
2017-09-21T10:29:53.751Z,101589.66
2017-09-21T10:32:21.387Z,101586.59
2017-09-21T10:34:49.028Z,101590.88
2017-09-21T10:37:16.647Z,101591.38
2017-09-21T10:39:44.265Z,101589.63
2017-09-21T10:42:11.906Z,101585.06
2017-09-21T10:44:39.508Z,101578.58
2017-09-21T10:47:07.121Z,101585.80
2017-09-21T10:49:34.734Z,101584.28
2017-09-21T10:52:02.383Z,101586.14
2017-09-21T10:54:30.043Z,101588.43
2017-09-21T10:56:57.665Z,101582.37
2017-09-21T10:59:25.265Z,101574.56
2017-09-21T11:01:52.904Z,101582.37
2017-09-21T11:04:20.494Z,101580.24
2017-09-21T11:06:48.170Z,101571.30
2017-09-21T11:09:15.776Z,101570.83
2017-09-21T11:11:43.406Z,101571.73
2017-09-21T11:14:11.092Z,101566.93
2017-09-21T11:16:38.687Z,101557.44
2017-09-21T11:19:06.310Z,101563.48
2017-09-21T11:21:33.906Z,101554.02
2017-09-21T11:24:01.539Z,101555.04
2017-09-21T11:26:29.140Z,101552.48
2017-09-21T11:28:56.759Z,101553.03
2017-09-21T11:31:24.354Z,101553.77
2017-09-21T11:33:51.979Z,101543.05
2017-09-21T11:36:19.639Z,101549.95
2017-09-21T11:38:47.279Z,101541.20
2017-09-21T11:41:14.866Z,101540.25
2017-09-21T11:43:42.462Z,101538.20
2017-09-21T11:46:10.088Z,101539.13
2017-09-21T11:48:37.718Z,101536.30
2017-09-21T11:51:05.311Z,101528.42
2017-09-21T11:53:32.955Z,101528.22
2017-09-21T11:56:00.578Z,101525.44
2017-09-21T11:58:28.190Z,101529.22
2017-09-21T12:00:55.807Z,101525.61
2017-09-21T12:03:23.387Z,101522.30
2017-09-21T12:05:51.019Z,101516.23
2017-09-21T12:08:18.613Z,101517.23
2017-09-21T12:10:46.226Z,101515.34
2017-09-21T12:13:13.838Z,101511.45
2017-09-21T12:15:41.487Z,101507.94
2017-09-21T12:18:09.071Z,101505.36
2017-09-21T12:20:36.700Z,101498.83
2017-09-21T12:23:04.285Z,101504.35
2017-09-21T12:25:31.906Z,101506.57
2017-09-21T12:27:59.487Z,101500.61
2017-09-21T12:30:27.122Z,101495.59
2017-09-21T12:32:54.751Z,101492.59
2017-09-21T12:35:22.347Z,101494.45
2017-09-21T12:37:49.975Z,101491.09
2017-09-21T12:40:17.644Z,101480.67
2017-09-21T12:42:45.347Z,101486.38
2017-09-21T12:45:12.963Z,101491.11
2017-09-21T12:47:40.594Z,101481.34
2017-09-21T12:50:08.181Z,101479.08
2017-09-21T12:52:36.031Z,101481.31
2017-09-21T12:55:03.650Z,101478.74
2017-09-21T12:57:31.345Z,101478.25
2017-09-21T12:59:58.969Z,101480.73
2017-09-21T13:02:26.595Z,101475.33
2017-09-21T13:04:54.206Z,101477.44
2017-09-21T13:07:21.959Z,101465.56
2017-09-21T13:09:49.568Z,101467.13
2017-09-21T13:12:17.222Z,101464.47
2017-09-21T13:14:44.813Z,101461.52
2017-09-21T13:17:12.437Z,101460.75
2017-09-21T13:19:40.028Z,101454.78
2017-09-21T13:22:07.679Z,101455.34
2017-09-21T13:24:35.281Z,101451.25
2017-09-21T13:27:02.908Z,101456.94
2017-09-21T13:29:30.548Z,101456.66
2017-09-21T13:31:58.179Z,101453.87
2017-09-21T13:34:25.786Z,101449.88
2017-09-21T13:36:53.445Z,101447.73
2017-09-21T13:39:21.051Z,101448.12
2017-09-21T13:41:48.731Z,101448.96
2017-09-21T13:44:16.362Z,101449.32
2017-09-21T13:46:43.960Z,101448.11
2017-09-21T13:49:11.591Z,101449.21
2017-09-21T13:51:39.183Z,101443.89
2017-09-21T13:54:06.820Z,101446.38
2017-09-21T13:56:34.431Z,101443.27
2017-09-21T13:59:02.051Z,101449.35
2017-09-21T14:01:29.656Z,101445.05
2017-09-21T14:03:57.286Z,101444.20
2017-09-21T14:06:24.890Z,101440.47
2017-09-21T14:08:52.546Z,101442.19
2017-09-21T14:11:20.141Z,101438.37
2017-09-21T14:13:47.746Z,101432.53
2017-09-21T14:16:15.362Z,101426.19
2017-09-21T14:18:42.971Z,101430.88
2017-09-21T14:21:10.558Z,101426.95
2017-09-21T14:23:38.193Z,101429.56
2017-09-21T14:26:05.796Z,101429.30
2017-09-21T14:28:33.410Z,101427.23
2017-09-21T14:31:01.058Z,101425.44
2017-09-21T14:33:28.674Z,101423.50
2017-09-21T14:35:56.295Z,101426.34
2017-09-21T14:38:23.922Z,101429.25
2017-09-21T14:40:51.519Z,101423.23
2017-09-21T14:43:19.219Z,101427.87
2017-09-21T14:45:46.801Z,101414.30
2017-09-21T14:48:14.441Z,101412.22
2017-09-21T14:50:42.074Z,101405.86
2017-09-21T14:53:09.705Z,101410.01
2017-09-21T14:55:37.290Z,101405.61
2017-09-21T14:58:04.915Z,101405.03
2017-09-21T15:00:32.514Z,101409.39
2017-09-21T15:03:00.133Z,101414.36
2017-09-21T15:05:27.768Z,101410.92
2017-09-21T15:07:55.421Z,101404.75
2017-09-21T15:10:23.014Z,101409.78
2017-09-21T15:12:50.607Z,101409.41
2017-09-21T15:15:18.248Z,101408.73
2017-09-21T15:17:45.857Z,101411.74
2017-09-21T15:20:13.503Z,101408.23
2017-09-21T15:22:41.162Z,101405.20
2017-09-21T15:25:08.794Z,101406.66
2017-09-21T15:27:36.395Z,101403.40
2017-09-21T15:30:04.003Z,101401.31
2017-09-21T15:32:31.698Z,101401.49
2017-09-21T15:34:59.314Z,101399.87
2017-09-21T15:37:26.988Z,101410.33
2017-09-21T15:39:54.583Z,101406.98
2017-09-21T15:42:22.231Z,101405.86
2017-09-21T15:44:49.822Z,101407.06
2017-09-21T15:47:17.437Z,101405.09
2017-09-21T15:49:45.078Z,101406.42
2017-09-21T15:52:12.673Z,101400.58
2017-09-21T15:54:40.302Z,101408.95
2017-09-21T15:57:07.904Z,101411.36
2017-09-21T15:59:35.531Z,101412.31
2017-09-21T16:02:03.144Z,101410.44
2017-09-21T16:04:30.787Z,101404.68
2017-09-21T16:06:58.386Z,101407.41
2017-09-21T16:09:26.033Z,101407.34
2017-09-21T16:11:53.635Z,101409.55
2017-09-21T16:14:21.262Z,101411.70
2017-09-21T16:16:48.922Z,101407.50
2017-09-21T16:19:16.556Z,101406.55
2017-09-21T16:21:44.339Z,101407.80
2017-09-21T16:24:11.995Z,101402.08
2017-09-21T16:26:39.673Z,101405.75
2017-09-21T16:29:09.027Z,101403.75
2017-09-21T16:31:36.767Z,101408.75
2017-09-21T16:34:05.081Z,101413.23
2017-09-21T16:36:32.780Z,101408.02
2017-09-21T16:39:01.175Z,101405.72
2017-09-21T16:41:30.553Z,101406.36
2017-09-21T16:43:59.080Z,101404.44
2017-09-21T16:46:27.268Z,101408.28
2017-09-21T16:48:55.620Z,101406.35
2017-09-21T16:51:23.262Z,101408.44
2017-09-21T16:53:50.901Z,101403.00
2017-09-21T16:56:19.259Z,101401.84
2017-09-21T16:58:47.321Z,101403.66
2017-09-21T17:01:15.773Z,101405.22
2017-09-21T17:03:43.396Z,101405.58
2017-09-21T17:06:11.626Z,101403.78
2017-09-21T17:08:39.272Z,101411.64
2017-09-21T17:11:06.936Z,101407.43
2017-09-21T17:13:34.592Z,101406.83
2017-09-21T17:16:02.258Z,101410.83
2017-09-21T17:18:29.897Z,101413.09
2017-09-21T17:20:57.563Z,101414.80
2017-09-21T17:23:25.174Z,101415.02
2017-09-21T17:25:52.863Z,101416.27
2017-09-21T17:28:20.482Z,101419.25
2017-09-21T17:30:48.090Z,101419.99
2017-09-21T17:33:15.751Z,101421.22
2017-09-21T17:35:43.349Z,101424.61
2017-09-21T17:38:10.982Z,101432.06
2017-09-21T17:40:38.760Z,101426.59
2017-09-21T17:43:06.396Z,101432.87
2017-09-21T17:45:33.982Z,101432.90
2017-09-21T17:48:01.673Z,101435.14
2017-09-21T17:50:29.266Z,101435.47
2017-09-21T17:52:56.911Z,101436.56
2017-09-21T17:55:24.526Z,101434.21
2017-09-21T17:57:52.178Z,101434.30
2017-09-21T18:00:19.890Z,101437.36
2017-09-21T18:02:47.523Z,101438.67
2017-09-21T18:05:15.140Z,101443.20
2017-09-21T18:07:42.763Z,101438.16
2017-09-21T18:10:10.364Z,101438.11
2017-09-21T18:12:38.025Z,101441.02
2017-09-21T18:15:05.648Z,101436.78
2017-09-21T18:17:33.281Z,101442.10
2017-09-21T18:20:00.921Z,101440.53
2017-09-21T18:22:28.554Z,101436.69
2017-09-21T18:24:56.171Z,101438.09
2017-09-21T18:27:23.834Z,101442.16
2017-09-21T18:29:51.438Z,101441.13
2017-09-21T18:32:19.106Z,101442.31
2017-09-21T18:34:46.725Z,101448.17
2017-09-21T18:37:14.340Z,101447.18
2017-09-21T18:39:41.952Z,101444.22
2017-09-21T18:42:09.622Z,101442.51
2017-09-21T18:44:37.385Z,101446.60
2017-09-21T18:47:05.036Z,101446.35
2017-09-21T18:49:32.936Z,101454.47
2017-09-21T18:52:01.568Z,101460.72
2017-09-21T18:54:30.498Z,101455.23
2017-09-21T18:56:58.826Z,101448.50
2017-09-21T18:59:26.621Z,101454.34
2017-09-21T19:01:54.316Z,101451.08
2017-09-21T19:04:21.966Z,101452.30
2017-09-21T19:06:49.786Z,101455.30
2017-09-21T19:09:17.414Z,101462.12
2017-09-21T19:11:45.691Z,101460.48
2017-09-21T19:14:13.331Z,101463.35
2017-09-21T19:16:41.264Z,101467.42
2017-09-21T19:19:08.895Z,101470.13
2017-09-21T19:21:37.723Z,101468.80
2017-09-21T19:24:05.397Z,101471.24
2017-09-21T19:26:33.002Z,101465.07
2017-09-21T19:29:01.400Z,101465.13
2017-09-21T19:31:29.496Z,101469.87
2017-09-21T19:33:57.206Z,101474.07
2017-09-21T19:36:25.746Z,101469.34
2017-09-21T19:38:53.436Z,101466.37
2017-09-21T19:41:21.781Z,101461.77
2017-09-21T19:43:49.479Z,101460.33
2017-09-21T19:46:17.936Z,101459.66
2017-09-21T19:48:45.586Z,101459.30
2017-09-21T19:51:13.264Z,101457.45
2017-09-21T19:53:40.917Z,101462.45
2017-09-21T19:56:08.708Z,101459.91
2017-09-21T19:58:37.130Z,101463.83
2017-09-21T20:01:06.144Z,101462.89
2017-09-21T20:03:34.747Z,101463.05
2017-09-21T20:06:02.828Z,101461.27
2017-09-21T20:08:30.527Z,101465.60
2017-09-21T20:10:58.309Z,101466.12
2017-09-21T20:13:26.708Z,101465.97
2017-09-21T20:15:54.310Z,101467.87
2017-09-21T20:18:22.040Z,101464.49
2017-09-21T20:20:49.651Z,101472.22
2017-09-21T20:23:17.288Z,101470.45
2017-09-21T20:25:44.934Z,101477.63
2017-09-21T20:28:12.607Z,101477.64
2017-09-21T20:30:40.211Z,101478.05
2017-09-21T20:33:07.902Z,101469.58
2017-09-21T20:35:35.519Z,101471.59
2017-09-21T20:38:03.109Z,101479.97
2017-09-21T20:40:30.759Z,101482.01
2017-09-21T20:42:58.395Z,101480.34
2017-09-21T20:45:26.068Z,101487.59
2017-09-21T20:47:53.697Z,101484.08
2017-09-21T20:50:21.469Z,101483.25
2017-09-21T20:52:49.087Z,101488.61
2017-09-21T20:55:16.730Z,101485.81
2017-09-21T20:57:44.331Z,101484.52
2017-09-21T21:00:11.978Z,101483.05
2017-09-21T21:02:39.632Z,101485.67
2017-09-21T21:05:07.258Z,101488.41
2017-09-21T21:07:34.866Z,101487.50
2017-09-21T21:10:02.493Z,101481.59
2017-09-21T21:12:30.110Z,101481.59
2017-09-21T21:14:57.758Z,101485.09
2017-09-21T21:17:25.447Z,101482.66
2017-09-21T21:19:53.082Z,101484.95
2017-09-21T21:22:20.684Z,101490.11
2017-09-21T21:24:48.458Z,101487.13
2017-09-21T21:27:16.155Z,101492.49
2017-09-21T21:29:43.846Z,101499.23
2017-09-21T21:32:11.453Z,101496.27
2017-09-21T21:34:39.211Z,101500.06
2017-09-21T21:37:06.827Z,101497.22
2017-09-21T21:39:34.521Z,101498.17
2017-09-21T21:42:02.123Z,101494.82
2017-09-21T21:44:29.815Z,101498.88
2017-09-21T21:46:57.431Z,101497.14
2017-09-21T21:49:25.094Z,101497.14
2017-09-21T21:51:52.728Z,101504.16
2017-09-21T21:54:20.358Z,101500.39
2017-09-21T21:56:47.990Z,101505.95
2017-09-21T21:59:15.639Z,101503.22
2017-09-21T22:01:43.258Z,101502.83
2017-09-21T22:04:10.898Z,101513.20
2017-09-21T22:06:38.521Z,101509.97
2017-09-21T22:09:06.132Z,101509.85
2017-09-21T22:11:33.771Z,101507.81
2017-09-21T22:14:01.432Z,101519.96
2017-09-21T22:16:29.037Z,101515.09
2017-09-21T22:18:56.757Z,101505.13
2017-09-21T22:21:24.391Z,101504.58
2017-09-21T22:23:52.013Z,101497.38
2017-09-21T22:26:19.688Z,101500.61
2017-09-21T22:28:47.287Z,101500.36
2017-09-21T22:31:14.909Z,101503.43
2017-09-21T22:33:42.506Z,101494.69
2017-09-21T22:36:10.142Z,101493.08
2017-09-21T22:38:37.786Z,101494.42
2017-09-21T22:41:05.423Z,101495.08
2017-09-21T22:43:33.010Z,101490.52
2017-09-21T22:46:00.634Z,101491.73
2017-09-21T22:48:28.235Z,101496.45
2017-09-21T22:50:55.900Z,101498.34
2017-09-21T22:53:23.506Z,101494.28
2017-09-21T22:55:51.098Z,101501.84
2017-09-21T22:58:18.730Z,101506.66
2017-09-21T23:00:46.378Z,101508.69
2017-09-21T23:03:13.963Z,101507.23
2017-09-21T23:05:41.591Z,101504.52
2017-09-21T23:08:09.234Z,101508.20
2017-09-21T23:10:36.824Z,101501.89
2017-09-21T23:13:04.442Z,101508.34
2017-09-21T23:15:32.030Z,101507.27
2017-09-21T23:17:59.660Z,101506.72
2017-09-21T23:20:27.247Z,101511.05
2017-09-21T23:22:54.907Z,101503.78
2017-09-21T23:25:22.499Z,101507.55
2017-09-21T23:27:50.214Z,101503.50
2017-09-21T23:30:17.854Z,101507.27
2017-09-21T23:32:45.454Z,101499.31
2017-09-21T23:35:13.082Z,101505.92
2017-09-21T23:37:40.680Z,101503.36
2017-09-21T23:40:08.309Z,101505.13
2017-09-21T23:42:35.900Z,101509.94
2017-09-21T23:45:03.518Z,101509.21
2017-09-21T23:47:31.122Z,101512.84
2017-09-21T23:49:58.737Z,101515.53
2017-09-21T23:52:26.342Z,101511.09
2017-09-21T23:54:53.969Z,101513.78
2017-09-21T23:57:21.626Z,101509.21
2017-09-21T23:59:49.245Z,101505.45
